createdAt,value
2023-03-21T00:00:40.549Z,98.68
2023-03-21T00:03:07.464Z,94.53
2023-03-21T00:05:34.337Z,94.32
2023-03-21T00:08:02.653Z,98.32
2023-03-21T00:10:39.806Z,95.15
2023-03-21T00:13:07.605Z,95.63
2023-03-21T00:15:44.263Z,94.22
2023-03-21T00:18:23.005Z,96.10
2023-03-21T00:21:25.702Z,100.53
2023-03-21T00:23:46.785Z,95.55
2023-03-21T00:26:14.740Z,95.78
2023-03-21T00:28:42.968Z,94.28
2023-03-21T00:31:10.198Z,100.63
2023-03-21T00:33:39.098Z,94.43
2023-03-21T00:36:07.397Z,97.82
2023-03-21T00:38:36.877Z,93.70
2023-03-21T00:41:21.012Z,96.93
2023-03-21T00:43:51.881Z,97.43
2023-03-21T00:46:18.756Z,97.20
2023-03-21T00:48:46.120Z,97.05
2023-03-21T00:51:18.573Z,97.95
2023-03-21T00:53:45.358Z,98.10
2023-03-21T00:56:11.957Z,94.40
2023-03-21T00:58:38.589Z,95.97
2023-03-21T01:01:06.581Z,95.38
2023-03-21T01:03:42.515Z,105.45
2023-03-21T01:06:13.267Z,99.35
2023-03-21T01:08:51.784Z,95.80
2023-03-21T01:11:22.528Z,101.30
2023-03-21T01:14:07.327Z,96.15
2023-03-21T01:16:36.894Z,95.63
2023-03-21T01:19:09.343Z,94.50
2023-03-21T01:21:39.301Z,93.88
2023-03-21T01:24:06.868Z,95.97
2023-03-21T01:26:33.722Z,96.00
2023-03-21T01:29:00.501Z,93.93
2023-03-21T01:31:27.208Z,98.88
2023-03-21T01:33:53.900Z,94.95
2023-03-21T01:36:24.343Z,96.05
2023-03-21T01:38:52.377Z,93.57
2023-03-21T01:41:33.465Z,94.72
2023-03-21T01:44:07.430Z,97.03
2023-03-21T01:49:34.550Z,97.03
2023-03-21T01:52:12.168Z,95.32
2023-03-21T01:54:42.204Z,97.22
2023-03-21T01:57:15.406Z,96.35
2023-03-21T01:59:50.314Z,94.03
2023-03-21T02:02:23.168Z,99.35
2023-03-21T02:04:56.109Z,98.35
2023-03-21T02:07:29.368Z,101.70
2023-03-21T02:09:57.968Z,95.88
2023-03-21T02:12:26.564Z,96.75
2023-03-21T02:14:54.232Z,97.03
2023-03-21T02:17:41.948Z,99.57
2023-03-21T02:20:52.298Z,98.35
2023-03-21T02:23:39.706Z,95.30
2023-03-21T02:26:42.326Z,97.18
2023-03-21T02:29:30.808Z,96.25
2023-03-21T02:32:37.716Z,101.65
2023-03-21T02:35:37.083Z,95.28
2023-03-21T02:38:30.598Z,100.47
2023-03-21T02:41:40.184Z,96.82
2023-03-21T02:44:27.524Z,95.05
2023-03-21T02:47:10.966Z,98.78
2023-03-21T02:50:02.656Z,96.55
2023-03-21T02:52:39.240Z,94.78
2023-03-21T02:55:13.819Z,94.15
2023-03-21T02:57:44.007Z,97.63
2023-03-21T03:00:17.864Z,103.75
2023-03-21T03:02:45.189Z,96.25
2023-03-21T03:05:21.531Z,95.65
2023-03-21T03:08:09.140Z,95.53
2023-03-21T03:10:58.628Z,98.63
2023-03-21T03:13:27.989Z,94.63
2023-03-21T03:16:16.272Z,95.85
2023-03-21T03:18:57.976Z,97.20
2023-03-21T03:21:37.606Z,96.50
2023-03-21T03:24:12.975Z,94.93
2023-03-21T03:26:41.434Z,101.80
2023-03-21T03:29:13.234Z,93.72
2023-03-21T03:31:47.362Z,97.63
2023-03-21T03:34:20.570Z,94.60
2023-03-21T03:36:56.254Z,94.22
2023-03-21T03:39:31.038Z,96.97
2023-03-21T03:42:18.333Z,97.07
2023-03-21T03:44:52.612Z,95.90
2023-03-21T03:47:47.744Z,100.47
2023-03-21T03:50:39.744Z,97.32
2023-03-21T03:53:22.831Z,98.20
2023-03-21T03:55:51.731Z,95.53
2023-03-21T03:58:23.778Z,94.97
2023-03-21T04:00:53.392Z,107.32
2023-03-21T04:03:20.701Z,96.88
2023-03-21T04:05:47.450Z,98.93
2023-03-21T04:08:15.416Z,97.57
2023-03-21T04:10:42.982Z,95.75
2023-03-21T04:13:10.129Z,96.10
2023-03-21T04:15:37.251Z,101.10
2023-03-21T04:18:04.039Z,97.57
2023-03-21T04:20:37.060Z,98.63
2023-03-21T04:23:05.413Z,96.60
2023-03-21T04:25:38.659Z,98.72
2023-03-21T04:28:07.241Z,98.38
2023-03-21T04:30:34.194Z,96.65
2023-03-21T04:33:01.135Z,102.35
2023-03-21T04:35:28.514Z,100.18
2023-03-21T04:37:56.005Z,104.53
2023-03-21T04:40:24.645Z,95.68
2023-03-21T04:42:52.758Z,101.78
2023-03-21T04:45:19.501Z,94.53
2023-03-21T04:47:46.272Z,96.45
2023-03-21T04:50:13.701Z,93.68
2023-03-21T04:52:40.569Z,98.00
2023-03-21T04:55:10.062Z,94.55
2023-03-21T04:57:38.289Z,97.55
2023-03-21T05:00:25.740Z,97.90
2023-03-21T05:02:52.351Z,97.10
2023-03-21T05:05:19.041Z,101.50
2023-03-21T05:07:45.713Z,98.07
2023-03-21T05:10:12.532Z,94.72
2023-03-21T05:12:39.731Z,97.28
2023-03-21T05:15:07.333Z,101.07
2023-03-21T05:17:34.380Z,98.35
2023-03-21T05:20:01.085Z,96.50
2023-03-21T05:22:28.961Z,94.68
2023-03-21T05:24:56.049Z,101.63
2023-03-21T05:27:35.691Z,101.60
2023-03-21T05:30:20.703Z,99.75
2023-03-21T05:32:47.448Z,102.97
2023-03-21T05:35:14.154Z,101.68
2023-03-21T05:37:40.777Z,97.28
2023-03-21T05:40:08.662Z,99.47
2023-03-21T05:42:35.405Z,96.57
2023-03-21T05:45:02.065Z,96.35
2023-03-21T05:47:28.788Z,97.78
2023-03-21T05:49:55.603Z,95.93
2023-03-21T05:52:22.415Z,96.70
2023-03-21T05:54:49.170Z,106.95
2023-03-21T05:57:16.289Z,96.15
2023-03-21T05:59:42.918Z,97.85
2023-03-21T06:02:09.548Z,99.40
2023-03-21T06:04:36.179Z,96.68
2023-03-21T06:07:03.131Z,98.28
2023-03-21T06:09:29.791Z,99.93
2023-03-21T06:11:57.227Z,99.53
2023-03-21T06:14:25.096Z,94.82
2023-03-21T06:16:53.859Z,97.13
2023-03-21T06:19:21.700Z,97.40
2023-03-21T06:21:49.250Z,94.72
2023-03-21T06:24:17.742Z,98.75
2023-03-21T06:26:45.323Z,96.82
2023-03-21T06:29:12.427Z,95.20
2023-03-21T06:31:39.169Z,101.00
2023-03-21T06:34:06.556Z,99.03
2023-03-21T06:36:33.298Z,98.78
2023-03-21T06:38:59.966Z,96.50
2023-03-21T06:41:26.696Z,100.45
2023-03-21T06:43:53.437Z,94.47
2023-03-21T06:46:20.459Z,96.13
2023-03-21T06:48:47.124Z,94.32
2023-03-21T06:51:14.777Z,97.95
2023-03-21T06:53:41.787Z,99.43
2023-03-21T06:56:13.600Z,100.55
2023-03-21T06:58:40.873Z,98.93
2023-03-21T07:01:08.185Z,98.68
2023-03-21T07:03:35.504Z,108.88
2023-03-21T07:06:11.802Z,93.53
2023-03-21T07:08:39.993Z,94.05
2023-03-21T07:11:07.526Z,101.95
2023-03-21T07:13:34.171Z,94.82
2023-03-21T07:16:01.028Z,99.75
2023-03-21T07:18:27.707Z,96.82
2023-03-21T07:20:54.452Z,97.15
2023-03-21T07:23:23.032Z,100.30
2023-03-21T07:25:51.124Z,95.65
2023-03-21T07:28:18.605Z,104.88
2023-03-21T07:30:51.290Z,101.55
2023-03-21T07:33:17.892Z,97.82
2023-03-21T07:35:44.702Z,97.88
2023-03-21T07:38:11.538Z,100.95
2023-03-21T07:40:38.306Z,96.60
2023-03-21T07:43:05.229Z,94.68
2023-03-21T07:45:31.831Z,101.63
2023-03-21T07:47:58.488Z,96.97
2023-03-21T07:50:25.241Z,96.07
2023-03-21T07:52:51.900Z,102.05
2023-03-21T07:55:18.731Z,96.45
2023-03-21T07:57:45.472Z,99.97
2023-03-21T08:00:13.744Z,98.03
2023-03-21T08:02:40.769Z,107.72
2023-03-21T08:05:08.104Z,95.38
2023-03-21T08:07:35.094Z,100.00
2023-03-21T08:10:01.731Z,96.93
2023-03-21T08:12:28.412Z,97.15
2023-03-21T08:14:55.135Z,95.97
2023-03-21T08:17:21.840Z,102.35
2023-03-21T08:19:49.083Z,94.45
2023-03-21T08:22:15.984Z,98.22
2023-03-21T08:24:42.721Z,95.50
2023-03-21T08:27:09.352Z,95.45
2023-03-21T08:29:40.443Z,94.93
2023-03-21T08:32:07.243Z,99.90
2023-03-21T08:34:34.114Z,93.45
2023-03-21T08:37:01.195Z,93.50
2023-03-21T08:39:28.403Z,92.40
2023-03-21T08:41:55.059Z,92.03
2023-03-21T08:44:22.084Z,98.43
2023-03-21T08:46:48.695Z,93.30
2023-03-21T08:49:15.311Z,95.30
2023-03-21T08:51:45.652Z,93.68
2023-03-21T08:54:22.100Z,98.93
2023-03-21T08:56:49.174Z,102.32
2023-03-21T08:59:15.913Z,97.70
2023-03-21T09:01:42.646Z,94.50
2023-03-21T09:04:11.001Z,96.15
2023-03-21T09:06:38.678Z,97.20
2023-03-21T09:09:07.526Z,98.20
2023-03-21T09:11:34.859Z,96.13
2023-03-21T09:14:01.940Z,98.60
2023-03-21T09:16:28.607Z,97.03
2023-03-21T09:18:57.010Z,97.50
2023-03-21T09:21:24.591Z,95.07
2023-03-21T09:23:52.978Z,94.18
2023-03-21T09:26:20.401Z,96.65
2023-03-21T09:28:48.073Z,94.60
2023-03-21T09:31:16.383Z,97.65
2023-03-21T09:33:43.838Z,98.10
2023-03-21T09:36:15.339Z,92.25
2023-03-21T09:38:45.431Z,95.10
2023-03-21T09:41:44.991Z,98.53
2023-03-21T09:44:37.505Z,95.57
2023-03-21T09:47:13.956Z,95.45
2023-03-21T09:49:44.957Z,97.10
2023-03-21T09:52:40.704Z,93.60
2023-03-21T09:55:19.950Z,93.38
2023-03-21T09:57:50.530Z,93.88
2023-03-21T10:00:29.464Z,98.07
2023-03-21T10:03:01.652Z,94.80
2023-03-21T10:05:31.960Z,93.00
2023-03-21T10:08:13.248Z,95.97
2023-03-21T10:10:52.983Z,95.95
2023-03-21T10:13:33.282Z,97.60
2023-03-21T10:16:04.498Z,92.47
2023-03-21T10:18:31.659Z,95.65
2023-03-21T10:20:58.409Z,94.47
2023-03-21T10:23:29.554Z,95.43
2023-03-21T10:26:00.003Z,90.88
2023-03-21T10:28:46.235Z,93.85
2023-03-21T10:31:25.269Z,91.18
2023-03-21T10:33:54.067Z,93.10
2023-03-21T10:36:25.820Z,97.30
2023-03-21T10:39:03.555Z,97.65
2023-03-21T10:41:30.937Z,96.63
2023-03-21T10:44:28.736Z,92.85
2023-03-21T10:47:09.782Z,96.75
2023-03-21T10:49:56.475Z,94.45
2023-03-21T10:52:28.439Z,92.82
2023-03-21T10:55:32.710Z,90.82
2023-03-21T10:58:18.852Z,93.03
2023-03-21T11:00:47.714Z,92.13
2023-03-21T11:03:33.291Z,92.00
2023-03-21T11:06:08.054Z,91.82
2023-03-21T11:08:45.791Z,93.65
2023-03-21T11:11:29.281Z,95.22
2023-03-21T11:14:01.756Z,92.57
2023-03-21T11:16:42.996Z,93.93
2023-03-21T11:19:15.631Z,94.38
2023-03-21T11:21:43.199Z,93.45
2023-03-21T11:24:18.385Z,96.45
2023-03-21T11:26:49.534Z,95.55
2023-03-21T11:29:25.957Z,93.82
2023-03-21T11:31:53.335Z,94.20
2023-03-21T11:34:39.047Z,95.68
2023-03-21T11:37:06.829Z,94.07
2023-03-21T11:39:39.569Z,94.25
2023-03-21T11:42:25.856Z,94.05
2023-03-21T11:45:02.179Z,94.15
2023-03-21T11:47:28.997Z,101.88
2023-03-21T11:50:04.520Z,93.13
2023-03-21T11:52:58.071Z,100.30
2023-03-21T11:55:58.828Z,99.35
2023-03-21T11:59:04.098Z,96.05
2023-03-21T12:01:59.772Z,96.55
2023-03-21T12:04:27.196Z,92.95
2023-03-21T12:07:00.590Z,96.35
2023-03-21T12:09:57.586Z,95.20
2023-03-21T12:12:45.745Z,95.60
2023-03-21T12:15:37.129Z,97.65
2023-03-21T12:18:25.934Z,92.20
2023-03-21T12:20:52.554Z,96.03
2023-03-21T12:23:31.130Z,90.97
2023-03-21T12:25:57.982Z,91.38
2023-03-21T12:28:50.029Z,91.30
2023-03-21T12:31:31.040Z,89.47
2023-03-21T12:34:23.383Z,93.20
2023-03-21T12:37:21.413Z,90.50
2023-03-21T12:39:50.097Z,95.97
2023-03-21T12:42:43.350Z,90.93
2023-03-21T12:45:16.823Z,90.40
2023-03-21T12:47:48.825Z,94.10
2023-03-21T12:50:22.652Z,93.35
2023-03-21T12:52:55.269Z,90.90
2023-03-21T12:55:24.774Z,92.28
2023-03-21T12:58:04.273Z,96.43
2023-03-21T13:00:45.781Z,95.00
2023-03-21T13:03:30.627Z,91.53
2023-03-21T13:06:07.066Z,92.40
2023-03-21T13:08:44.103Z,94.05
2023-03-21T13:11:15.233Z,94.20
2023-03-21T13:13:41.838Z,98.15
2023-03-21T13:16:21.114Z,92.57
2023-03-21T13:19:17.010Z,92.65
2023-03-21T13:21:46.994Z,91.70
2023-03-21T13:24:28.097Z,97.82
2023-03-21T13:27:07.596Z,94.80
2023-03-21T13:29:50.650Z,96.65
2023-03-21T13:32:30.919Z,98.50
2023-03-21T13:35:27.455Z,104.85
2023-03-21T13:37:58.931Z,97.28
2023-03-21T13:40:34.725Z,92.93
2023-03-21T13:43:03.648Z,95.80
2023-03-21T13:45:34.585Z,96.78
2023-03-21T13:48:07.359Z,94.63
2023-03-21T13:50:49.616Z,93.20
2023-03-21T13:53:16.203Z,91.38
2023-03-21T13:55:45.817Z,102.28
2023-03-21T13:58:33.405Z,94.65
2023-03-21T14:01:36.386Z,96.00
2023-03-21T14:04:16.621Z,92.10
2023-03-21T14:06:43.279Z,92.88
2023-03-21T14:09:16.024Z,94.20
2023-03-21T14:11:46.689Z,93.50
2023-03-21T14:14:14.005Z,95.55
2023-03-21T14:16:42.124Z,93.32
2023-03-21T14:19:11.920Z,97.55
2023-03-21T14:21:46.168Z,94.28
2023-03-21T14:24:13.948Z,98.35
2023-03-21T14:26:44.350Z,95.85
2023-03-21T14:29:26.122Z,97.75
2023-03-21T14:31:55.568Z,100.32
2023-03-21T14:34:23.037Z,101.68
2023-03-21T14:36:57.497Z,101.18
2023-03-21T14:39:32.018Z,100.65
2023-03-21T14:42:05.757Z,102.25
2023-03-21T14:44:54.821Z,101.38
2023-03-21T14:47:32.180Z,102.32
2023-03-21T14:50:01.126Z,110.32
2023-03-21T14:52:31.882Z,101.68
2023-03-21T14:55:00.788Z,99.28
2023-03-21T14:57:30.921Z,99.25
2023-03-21T15:00:01.822Z,98.43
2023-03-21T15:02:34.461Z,97.20
2023-03-21T15:05:30.440Z,95.75
2023-03-21T15:07:58.714Z,98.40
2023-03-21T15:10:27.946Z,95.30
2023-03-21T15:12:57.436Z,102.50
2023-03-21T15:15:27.587Z,101.50
2023-03-21T15:17:57.430Z,102.03
2023-03-21T15:20:28.671Z,100.68
2023-03-21T15:23:00.595Z,99.20
2023-03-21T15:25:30.796Z,100.60
2023-03-21T15:27:57.444Z,102.82
2023-03-21T15:30:30.592Z,98.72
2023-03-21T15:32:59.206Z,94.88
2023-03-21T15:35:36.031Z,98.03
2023-03-21T15:38:04.570Z,104.90
2023-03-21T15:40:33.682Z,98.38
2023-03-21T15:43:19.829Z,96.65
2023-03-21T15:45:49.184Z,97.72
2023-03-21T15:48:16.217Z,98.65
2023-03-21T15:51:03.460Z,100.28
2023-03-21T15:53:34.139Z,102.82
2023-03-21T15:56:02.026Z,101.60
2023-03-21T15:58:42.686Z,104.50
2023-03-21T16:01:18.554Z,96.40
2023-03-21T16:03:47.939Z,95.28
2023-03-21T16:06:25.650Z,101.00
2023-03-21T16:09:03.804Z,102.47
2023-03-21T16:11:48.049Z,101.50
2023-03-21T16:14:14.729Z,97.68
2023-03-21T16:16:41.431Z,97.13
2023-03-21T16:19:08.161Z,98.03
2023-03-21T16:21:38.093Z,102.82
2023-03-21T16:24:06.297Z,99.15
2023-03-21T16:26:36.962Z,104.85
2023-03-21T16:29:05.382Z,99.45
2023-03-21T16:31:34.017Z,99.75
2023-03-21T16:34:01.707Z,104.07
2023-03-21T16:36:37.132Z,97.03
2023-03-21T16:39:24.325Z,100.32
2023-03-21T16:41:51.440Z,100.07
2023-03-21T16:44:19.019Z,101.97
2023-03-21T16:46:47.167Z,99.57
2023-03-21T16:49:26.102Z,98.82
2023-03-21T16:51:54.510Z,97.32
2023-03-21T16:54:21.309Z,99.43
2023-03-21T16:56:52.187Z,100.65
2023-03-21T16:59:19.021Z,100.88
2023-03-21T17:01:47.673Z,99.88
2023-03-21T17:04:16.396Z,97.03
2023-03-21T17:06:46.268Z,101.50
2023-03-21T17:09:15.413Z,99.70
2023-03-21T17:11:42.544Z,100.15
2023-03-21T17:14:12.088Z,101.05
2023-03-21T17:16:43.311Z,95.90
2023-03-21T17:19:13.518Z,100.03
2023-03-21T17:21:40.268Z,98.68
2023-03-21T17:24:07.008Z,101.35
2023-03-21T17:26:33.783Z,101.68
2023-03-21T17:29:00.888Z,102.85
2023-03-21T17:31:31.698Z,101.93
2023-03-21T17:33:58.421Z,100.65
2023-03-21T17:36:31.080Z,103.60
2023-03-21T17:38:58.084Z,106.78
2023-03-21T17:41:24.932Z,101.07
2023-03-21T17:43:51.751Z,97.28
2023-03-21T17:46:24.078Z,109.10
2023-03-21T17:48:51.311Z,107.40
2023-03-21T17:51:18.198Z,102.70
2023-03-21T17:53:50.625Z,103.70
2023-03-21T17:56:32.148Z,104.05
2023-03-21T17:59:00.968Z,109.47
2023-03-21T18:01:30.600Z,98.90
2023-03-21T18:03:58.084Z,104.45
2023-03-21T18:06:26.744Z,102.53
2023-03-21T18:08:54.617Z,100.53
2023-03-21T18:11:22.642Z,102.07
2023-03-21T18:13:49.304Z,98.70
2023-03-21T18:16:22.229Z,99.47
2023-03-21T18:18:50.821Z,102.20
2023-03-21T18:21:20.212Z,98.95
2023-03-21T18:23:47.643Z,105.53
2023-03-21T18:26:19.806Z,104.93
2023-03-21T18:29:16.692Z,100.20
2023-03-21T18:31:34.406Z,101.38
2023-03-21T18:34:01.274Z,105.15
2023-03-21T18:36:29.062Z,112.47
2023-03-21T18:38:56.868Z,101.13
2023-03-21T18:41:23.805Z,105.57
2023-03-21T18:44:17.508Z,102.55
2023-03-21T18:46:40.320Z,105.15
2023-03-21T18:49:42.134Z,101.68
2023-03-21T18:51:54.308Z,101.03
2023-03-21T18:54:21.370Z,106.55
2023-03-21T18:57:33.919Z,104.53
2023-03-21T18:59:39.238Z,104.10
2023-03-21T19:02:06.677Z,104.68
2023-03-21T19:04:34.157Z,105.35
2023-03-21T19:07:01.043Z,104.97
2023-03-21T19:09:31.587Z,104.18
2023-03-21T19:11:58.950Z,102.13
2023-03-21T19:14:25.606Z,109.43
2023-03-21T19:19:40.576Z,105.75
2023-03-21T19:22:07.510Z,107.75
2023-03-21T19:24:34.227Z,104.35
2023-03-21T19:27:00.911Z,101.32
2023-03-21T19:29:27.570Z,104.18
2023-03-21T19:31:54.292Z,101.95
2023-03-21T19:34:21.162Z,101.68
2023-03-21T19:36:52.186Z,107.53
2023-03-21T19:39:22.227Z,101.53
2023-03-21T19:41:50.558Z,105.88
2023-03-21T19:44:17.932Z,103.75
2023-03-21T19:46:44.668Z,102.93
2023-03-21T19:49:11.334Z,104.53
2023-03-21T19:51:38.059Z,108.72
2023-03-21T19:54:05.939Z,104.03
2023-03-21T19:56:34.484Z,97.85
2023-03-21T19:59:03.128Z,96.45
2023-03-21T20:01:32.304Z,97.05
2023-03-21T20:03:59.337Z,98.22
2023-03-21T20:06:26.803Z,108.07
2023-03-21T20:09:34.022Z,105.30
2023-03-21T20:11:40.761Z,104.32
2023-03-21T20:14:07.413Z,106.07
2023-03-21T20:16:35.631Z,103.30
2023-03-21T20:19:05.682Z,107.07
2023-03-21T20:21:45.338Z,106.13
2023-03-21T20:24:16.761Z,104.22
2023-03-21T20:26:45.114Z,104.57
2023-03-21T20:30:05.453Z,108.32
2023-03-21T20:31:58.579Z,107.85
2023-03-21T20:34:25.258Z,103.70
2023-03-21T20:36:53.366Z,104.97
2023-03-21T20:39:20.274Z,102.47
2023-03-21T20:41:47.055Z,107.15
2023-03-21T20:44:48.088Z,104.13
2023-03-21T20:47:00.736Z,105.32
2023-03-21T20:49:28.434Z,102.07
2023-03-21T20:54:43.349Z,104.47
2023-03-21T20:57:10.106Z,105.90
2023-03-21T20:59:36.841Z,101.82
2023-03-21T21:02:03.627Z,101.10
2023-03-21T21:04:52.897Z,104.38
2023-03-21T21:07:20.253Z,103.85
2023-03-21T21:09:47.834Z,104.68
2023-03-21T21:12:16.500Z,107.13
2023-03-21T21:14:43.700Z,106.78
2023-03-21T21:17:28.398Z,112.05
2023-03-21T21:19:57.104Z,106.80
2023-03-21T21:22:23.924Z,106.70
2023-03-21T21:24:50.598Z,111.50
2023-03-21T21:27:17.207Z,109.18
2023-03-21T21:29:43.825Z,109.28
2023-03-21T21:32:11.276Z,108.00
2023-03-21T21:34:38.272Z,109.65
2023-03-21T21:37:05.133Z,117.85
2023-03-21T21:39:37.850Z,106.50
2023-03-21T21:42:05.099Z,105.88
2023-03-21T21:44:31.784Z,107.35
2023-03-21T21:46:58.494Z,105.97
2023-03-21T21:49:25.240Z,107.72
2023-03-21T21:51:51.885Z,102.30
2023-03-21T21:54:18.739Z,105.32
2023-03-21T21:56:48.294Z,101.95
2023-03-21T21:59:18.306Z,100.87
2023-03-21T22:01:46.624Z,106.97
2023-03-21T22:04:14.455Z,114.63
2023-03-21T22:06:42.242Z,108.53
2023-03-21T22:09:09.591Z,111.80
2023-03-21T22:11:36.377Z,104.90
2023-03-21T22:14:03.486Z,112.05
2023-03-21T22:16:30.185Z,105.35
2023-03-21T22:18:56.969Z,105.10
2023-03-21T22:21:23.688Z,110.10
2023-03-21T22:23:50.337Z,108.03
2023-03-21T22:26:17.103Z,104.70
2023-03-21T22:28:43.841Z,113.00
2023-03-21T22:31:15.749Z,104.60
2023-03-21T22:33:43.390Z,109.53
2023-03-21T22:36:11.153Z,102.18
2023-03-21T22:38:38.327Z,107.60
2023-03-21T22:41:06.495Z,104.50
2023-03-21T22:43:34.311Z,109.53
2023-03-21T22:46:05.022Z,105.57
2023-03-21T22:48:32.310Z,102.28
2023-03-21T22:50:59.877Z,106.10
2023-03-21T22:53:26.821Z,106.15
2023-03-21T22:55:53.750Z,103.63
2023-03-21T22:58:20.921Z,107.40
2023-03-21T23:00:47.769Z,103.53
2023-03-21T23:03:16.619Z,103.47
2023-03-21T23:05:44.418Z,103.00
2023-03-21T23:08:11.618Z,104.80
2023-03-21T23:10:39.780Z,103.75
2023-03-21T23:13:06.823Z,107.07
2023-03-21T23:15:33.847Z,106.38
2023-03-21T23:18:00.512Z,106.90
2023-03-21T23:20:27.244Z,103.45
2023-03-21T23:22:53.892Z,106.50
2023-03-21T23:25:20.684Z,108.68
2023-03-21T23:27:47.964Z,106.18
2023-03-21T23:30:14.720Z,105.03
2023-03-21T23:32:41.717Z,108.18
2023-03-21T23:35:09.453Z,105.72
2023-03-21T23:37:36.140Z,106.45
2023-03-21T23:40:06.107Z,109.43
2023-03-21T23:42:34.083Z,106.32
2023-03-21T23:45:00.848Z,109.97
2023-03-21T23:47:27.946Z,108.10
2023-03-21T23:49:54.604Z,107.20
2023-03-21T23:52:21.329Z,111.05
2023-03-21T23:54:48.065Z,110.30
2023-03-21T23:57:14.692Z,109.43
2023-03-21T23:59:41.381Z,107.65
